Time;durP1;ratioP1;P1;durP2;ratioP2;P2;SDS_P1;SDS_P2;PMS_P1;PMS_P2;Temp;Humidity;BMP_temperature;BMP_pressure;BME280_temperature;BME280_humidity;BME280_pressure;Samples;Min_cycle;Max_cycle;Signal;HPM_P1;HPM_P2
2023/08/16 00:01:42;;;;;;;;;5.50;3.75;;;;;18.00;69.83;101971.06;4935151;28;9554;-66
2023/08/16 00:04:08;;;;;;;;;3.00;3.00;;;;;17.98;69.71;101973.16;4952005;28;8851;-68
2023/08/16 00:06:35;;;;;;;;;3.25;2.50;;;;;17.97;69.97;101966.03;4958219;28;9011;-67
2023/08/16 00:09:02;;;;;;;;;3.00;3.00;;;;;17.97;70.14;101968.75;4949141;28;9604;-67
2023/08/16 00:11:28;;;;;;;;;4.00;4.00;;;;;17.98;70.00;101962.25;4951990;28;8846;-68
2023/08/16 00:13:55;;;;;;;;;2.75;2.00;;;;;18.00;70.04;101960.16;4950598;28;8956;-67
2023/08/16 00:16:21;;;;;;;;;2.75;2.50;;;;;18.00;70.23;101968.34;4952060;28;8829;-68
2023/08/16 00:18:48;;;;;;;;;2.00;1.00;;;;;17.99;70.31;101964.78;4952396;28;8933;-68
2023/08/16 00:21:14;;;;;;;;;3.50;3.50;;;;;18.01;70.25;101967.28;4951690;28;8845;-68
2023/08/16 00:23:41;;;;;;;;;5.75;4.00;;;;;18.00;70.55;101976.50;4949280;28;8849;-67
2023/08/16 00:26:08;;;;;;;;;2.00;2.00;;;;;17.99;70.68;101969.41;4950372;28;8947;-68
2023/08/16 00:28:34;;;;;;;;;3.50;3.50;;;;;17.97;70.47;101968.75;4949572;28;8972;-68
2023/08/16 00:31:00;;;;;;;;;2.00;2.00;;;;;17.96;70.51;101975.28;4931388;28;8844;-68
2023/08/16 00:33:27;;;;;;;;;3.00;2.00;;;;;17.95;70.48;101974.44;4950066;28;8838;-66
2023/08/16 00:35:54;;;;;;;;;3.50;3.00;;;;;17.93;70.75;101975.69;4932404;28;8830;-68
2023/08/16 00:38:20;;;;;;;;;3.25;2.00;;;;;17.89;70.46;101966.28;4945465;28;8841;-68
2023/08/16 00:40:51;;;;;;;;;2.75;2.75;;;;;17.86;70.51;101969.44;4927328;28;8904;-68
2023/08/16 00:43:18;;;;;;;;;4.25;3.75;;;;;17.84;70.70;101971.53;4929300;28;8988;-68
2023/08/16 00:45:46;;;;;;;;;2.00;2.00;;;;;17.82;70.70;101970.91;4950423;28;8826;-68
2023/08/16 00:48:13;;;;;;;;;3.75;3.00;;;;;17.79;70.83;101974.91;4934906;29;8838;-67
2023/08/16 00:50:40;;;;;;;;;4.25;3.00;;;;;17.76;70.89;101976.19;4951580;28;8832;-68
2023/08/16 00:53:08;;;;;;;;;3.25;3.25;;;;;17.74;70.75;101981.00;4935455;29;8952;-68
2023/08/16 00:55:35;;;;;;;;;3.00;3.00;;;;;17.68;70.73;101976.38;4948683;28;8853;-68
2023/08/16 00:58:02;;;;;;;;;3.00;3.00;;;;;17.68;71.19;101984.53;4934499;28;9005;-67
2023/08/16 01:00:28;;;;;;;;;2.00;2.00;;;;;17.67;71.30;101993.78;4934498;29;8830;-67
2023/08/16 01:02:56;;;;;;;;;2.25;2.25;;;;;17.68;71.25;101995.44;4951389;29;8840;-68
2023/08/16 01:05:23;;;;;;;;;3.00;3.00;;;;;17.70;71.45;101996.06;4951656;29;8845;-68
2023/08/16 01:07:50;;;;;;;;;2.00;2.00;;;;;17.71;71.70;102005.09;4950130;28;8937;-68
2023/08/16 01:10:18;;;;;;;;;2.50;2.00;;;;;17.70;71.51;102012.41;4945988;28;8841;-67
2023/08/16 01:13:03;;;;;;;;;3.25;3.00;;;;;17.67;71.63;102007.38;4933827;28;8861;-68
2023/08/16 01:15:42;;;;;;;;;4.25;4.25;;;;;17.65;71.53;102008.63;4952727;28;8884;-68
2023/08/16 01:18:10;;;;;;;;;2.00;2.00;;;;;17.61;71.71;102005.50;4956666;28;8972;-68
2023/08/16 01:20:37;;;;;;;;;4.50;3.00;;;;;17.60;71.59;102005.72;4952652;28;8823;-68
2023/08/16 01:23:12;;;;;;;;;3.00;3.00;;;;;17.58;71.76;102013.25;4953895;28;8954;-67
2023/08/16 01:25:48;;;;;;;;;2.25;2.25;;;;;17.57;71.69;102017.03;4954709;28;8826;-67
2023/08/16 01:28:17;;;;;;;;;4.50;2.50;;;;;17.54;71.88;102021.00;4947764;28;8842;-66
2023/08/16 01:30:45;;;;;;;;;2.25;2.00;;;;;17.53;71.67;102024.78;4953088;28;8860;-67
2023/08/16 01:33:13;;;;;;;;;2.00;2.00;;;;;17.52;71.91;102023.94;4954103;28;8838;-67
2023/08/16 01:35:41;;;;;;;;;3.75;3.00;;;;;17.51;71.85;102029.63;4936427;28;8863;-67
2023/08/16 01:38:10;;;;;;;;;3.25;2.00;;;;;17.49;71.83;102028.97;4954935;28;9538;-68
2023/08/16 01:40:49;;;;;;;;;2.00;2.00;;;;;17.49;72.06;102028.97;4954987;28;8863;-68
2023/08/16 01:43:18;;;;;;;;;4.00;4.00;;;;;17.48;72.07;102032.75;4953040;28;8854;-67
2023/08/16 01:45:46;;;;;;;;;5.00;5.00;;;;;17.45;72.04;102028.56;4954615;28;8842;-67
2023/08/16 01:48:14;;;;;;;;;2.25;2.25;;;;;17.44;72.26;102026.06;4952334;28;8858;-68
2023/08/16 01:50:41;;;;;;;;;2.75;2.75;;;;;17.43;72.31;102025.22;4953875;28;8959;-68
2023/08/16 01:53:08;;;;;;;;;3.00;3.00;;;;;17.43;72.47;102027.13;4946403;28;9620;-65
2023/08/16 01:55:36;;;;;;;;;4.50;4.00;;;;;17.43;72.33;102032.56;4952918;28;8850;-67
2023/08/16 01:58:02;;;;;;;;;5.00;3.50;;;;;17.42;72.56;102033.59;4936912;28;8928;-68
2023/08/16 02:00:29;;;;;;;;;1.75;1.75;;;;;17.41;72.35;102030.03;4951866;28;8853;-67
2023/08/16 02:02:55;;;;;;;;;2.75;2.75;;;;;17.42;72.36;102030.84;4952926;28;8841;-68
2023/08/16 02:05:23;;;;;;;;;2.50;2.50;;;;;17.43;72.28;102024.38;4932888;28;8853;-67
2023/08/16 02:07:49;;;;;;;;;3.50;3.00;;;;;17.43;72.80;102032.56;4954631;28;8830;-67
2023/08/16 02:10:16;;;;;;;;;4.75;4.75;;;;;17.42;72.49;102028.13;4936813;28;8861;-66
2023/08/16 02:12:42;;;;;;;;;4.75;4.00;;;;;17.44;72.93;102031.50;4954360;28;8953;-67
2023/08/16 02:15:09;;;;;;;;;3.00;3.00;;;;;17.44;73.01;102021.44;4935193;28;8855;-67
2023/08/16 02:17:36;;;;;;;;;3.00;3.00;;;;;17.44;73.24;102021.44;4921805;28;8858;-68
2023/08/16 02:20:04;;;;;;;;;3.00;3.00;;;;;17.45;73.30;102030.44;4943717;28;8860;-67
2023/08/16 02:22:30;;;;;;;;;6.50;6.00;;;;;17.44;73.52;102023.34;4952201;28;8838;-67
2023/08/16 02:25:09;;;;;;;;;4.75;3.75;;;;;17.45;73.60;102016.84;4954146;28;8865;-67
2023/08/16 02:27:35;;;;;;;;;2.75;1.75;;;;;17.45;73.72;102023.13;4937146;28;8857;-67
2023/08/16 02:30:02;;;;;;;;;6.25;4.25;;;;;17.45;73.50;102023.13;4954067;28;8908;-67
2023/08/16 02:32:29;;;;;;;;;3.00;3.00;;;;;17.45;73.54;102039.44;4951892;28;8960;-66
2023/08/16 02:34:55;;;;;;;;;3.00;3.00;;;;;17.43;73.45;102038.84;4951454;28;8842;-68
2023/08/16 02:37:23;;;;;;;;;6.25;4.00;;;;;17.41;73.76;102043.63;4921535;28;8838;-67
2023/08/16 02:39:50;;;;;;;;;3.00;3.00;;;;;17.38;73.86;102038.63;4952578;28;8846;-68
2023/08/16 02:42:16;;;;;;;;;2.00;2.00;;;;;17.35;73.87;102032.78;4940778;28;8843;-67
2023/08/16 02:44:43;;;;;;;;;6.50;3.75;;;;;17.31;73.64;102032.34;4952147;28;8932;-67
2023/08/16 02:47:09;;;;;;;;;3.50;3.50;;;;;17.28;73.73;102028.16;4956607;28;8871;-67
2023/08/16 02:49:36;;;;;;;;;3.50;2.00;;;;;17.25;73.54;102044.88;4953722;28;8852;-67
2023/08/16 02:52:03;;;;;;;;;3.50;3.50;;;;;17.23;73.86;102040.72;4950591;28;8834;-67
2023/08/16 02:54:29;;;;;;;;;3.25;3.00;;;;;17.22;74.14;102037.16;4947956;28;8856;-66
2023/08/16 02:56:56;;;;;;;;;6.25;3.25;;;;;17.20;73.78;102041.97;4937962;28;8838;-68
2023/08/16 02:59:22;;;;;;;;;5.25;3.00;;;;;17.16;73.86;102040.72;4938803;28;8846;-67
2023/08/16 03:01:49;;;;;;;;;5.50;3.00;;;;;17.14;73.92;102048.25;4935795;28;8846;-67
2023/08/16 03:04:16;;;;;;;;;7.00;6.25;;;;;17.10;74.00;102049.72;4952487;28;8846;-68
2023/08/16 03:06:42;;;;;;;;;5.00;3.50;;;;;17.10;73.91;102051.63;4935071;28;8818;-68
2023/08/16 03:09:09;;;;;;;;;3.00;3.00;;;;;17.09;74.32;102044.47;4933837;28;8827;-68
2023/08/16 03:11:37;;;;;;;;;3.25;3.25;;;;;17.10;74.21;102044.28;4942765;28;8829;-68
2023/08/16 03:14:04;;;;;;;;;5.25;5.00;;;;;17.10;74.09;102035.28;4952350;28;8847;-67
2023/08/16 03:16:31;;;;;;;;;2.75;2.75;;;;;17.09;74.33;102033.59;4953189;28;8870;-67
2023/08/16 03:18:58;;;;;;;;;3.00;3.00;;;;;17.08;74.29;102031.91;4951450;28;9574;-68
2023/08/16 03:21:25;;;;;;;;;2.00;2.00;;;;;17.04;73.98;102031.50;4934650;28;8838;-67
2023/08/16 03:23:51;;;;;;;;;3.67;3.33;;;;;17.01;74.19;102037.34;4927857;28;8838;-67
2023/08/16 03:26:18;;;;;;;;;5.00;5.00;;;;;16.98;74.20;102035.06;4952243;28;8921;-67
2023/08/16 03:28:45;;;;;;;;;4.50;4.50;;;;;16.97;74.22;102030.66;4951622;28;8928;-68
2023/08/16 03:31:12;;;;;;;;;2.50;2.50;;;;;16.94;73.88;102036.53;4934602;28;8845;-67
2023/08/16 03:33:40;;;;;;;;;4.75;4.75;;;;;16.89;74.13;102037.13;4935517;28;8841;-68
2023/08/16 03:36:07;;;;;;;;;3.25;3.25;;;;;16.89;73.84;102039.00;4952543;28;8952;-68
2023/08/16 03:38:34;;;;;;;;;3.75;3.00;;;;;16.89;74.16;102048.00;4950467;28;8920;-68
2023/08/16 03:41:00;;;;;;;;;3.00;3.00;;;;;16.88;73.93;102049.03;4952403;28;8875;-68
2023/08/16 03:43:29;;;;;;;;;7.25;4.00;;;;;16.86;74.08;102051.16;4950321;28;8825;-68
2023/08/16 03:45:55;;;;;;;;;3.00;3.00;;;;;16.84;74.39;102041.50;4934784;28;8858;-67
2023/08/16 03:48:22;;;;;;;;;4.75;3.75;;;;;16.83;74.20;102050.72;4935679;28;8846;-67
2023/08/16 03:50:48;;;;;;;;;3.75;3.75;;;;;16.81;74.18;102053.63;4952162;28;8866;-68
2023/08/16 03:53:15;;;;;;;;;5.00;5.00;;;;;16.79;74.37;102050.28;4949058;28;8841;-67
2023/08/16 03:55:41;;;;;;;;;5.50;4.00;;;;;16.76;74.43;102050.69;4952068;28;8850;-68
2023/08/16 03:58:07;;;;;;;;;3.00;2.00;;;;;16.73;74.44;102041.09;4952019;28;8873;-67
2023/08/16 04:00:34;;;;;;;;;3.75;3.75;;;;;16.74;74.13;102044.66;4933128;28;8833;-68
2023/08/16 04:03:00;;;;;;;;;4.00;4.00;;;;;16.73;74.34;102053.81;4934325;28;8910;-67
2023/08/16 04:05:27;;;;;;;;;4.33;4.33;;;;;16.69;73.99;102047.09;4935789;28;8960;-67
2023/08/16 04:07:54;;;;;;;;;7.33;5.00;;;;;16.69;74.50;102055.25;4952407;28;8921;-67
2023/08/16 04:10:20;;;;;;;;;5.00;3.50;;;;;16.67;74.20;102047.31;4931636;28;9632;-67
2023/08/16 04:12:48;;;;;;;;;4.00;4.00;;;;;16.66;74.26;102051.06;4940798;28;8849;-68
2023/08/16 04:15:15;;;;;;;;;5.00;4.67;;;;;16.64;74.52;102055.84;4952194;28;8944;-68
2023/08/16 04:17:41;;;;;;;;;7.00;5.00;;;;;16.61;74.37;102050.00;4950807;28;8954;-67
2023/08/16 04:20:10;;;;;;;;;5.50;4.50;;;;;16.60;74.20;102051.88;4935778;28;8944;-67
2023/08/16 04:22:36;;;;;;;;;2.00;2.00;;;;;16.61;74.74;102058.16;4933389;28;9602;-67
2023/08/16 04:25:03;;;;;;;;;3.50;3.50;;;;;16.60;74.30;102061.91;4949235;28;8987;-67
2023/08/16 04:27:30;;;;;;;;;4.00;3.25;;;;;16.59;74.55;102052.09;4950793;28;8857;-68
2023/08/16 04:29:56;;;;;;;;;4.00;4.00;;;;;16.58;74.54;102048.53;4936934;28;9579;-68
2023/08/16 04:32:23;;;;;;;;;5.00;3.00;;;;;16.56;74.76;102054.16;4930195;28;9002;-67
2023/08/16 04:34:49;;;;;;;;;5.00;5.00;;;;;16.55;74.74;102060.66;4933724;28;9023;-68
2023/08/16 04:37:16;;;;;;;;;4.00;3.00;;;;;16.56;74.85;102061.47;4933166;28;9125;-68
2023/08/16 04:39:42;;;;;;;;;4.33;4.33;;;;;16.56;74.84;102061.47;4949230;28;8988;-67
2023/08/16 04:42:10;;;;;;;;;6.67;4.00;;;;;16.55;74.55;102065.25;4934000;28;8936;-68
2023/08/16 04:44:36;;;;;;;;;4.00;4.00;;;;;16.53;74.73;102075.50;4945284;29;9734;-68
2023/08/16 04:47:04;;;;;;;;;7.33;6.00;;;;;16.53;74.81;102075.50;4950526;28;9102;-67
2023/08/16 04:49:32;;;;;;;;;6.00;6.00;;;;;16.52;74.89;102084.69;4935913;28;9074;-68
2023/08/16 04:51:58;;;;;;;;;6.25;6.25;;;;;16.52;75.09;102076.53;4951770;28;8947;-67
2023/08/16 04:54:25;;;;;;;;;7.00;5.33;;;;;16.53;75.15;102079.06;4945677;28;8873;-68
2023/08/16 04:56:52;;;;;;;;;5.00;5.00;;;;;16.54;75.06;102075.28;4938357;28;9795;-68
2023/08/16 04:59:19;;;;;;;;;8.00;6.33;;;;;16.54;74.99;102080.72;4953990;28;9265;-68
2023/08/16 05:01:46;;;;;;;;;7.00;6.67;;;;;16.55;75.42;102081.56;4945076;28;8985;-68
2023/08/16 05:04:13;;;;;;;;;5.33;5.33;;;;;16.56;75.26;102086.78;4937500;28;8976;-67
2023/08/16 05:06:40;;;;;;;;;7.00;7.00;;;;;16.56;75.62;102085.94;4943527;28;8929;-67
2023/08/16 05:09:06;;;;;;;;;7.00;3.33;;;;;16.60;75.47;102078.22;4951454;28;8999;-67
2023/08/16 05:11:35;;;;;;;;;3.67;3.00;;;;;16.62;75.78;102087.88;4939119;28;9003;-68
2023/08/16 05:14:01;;;;;;;;;6.33;5.00;;;;;16.62;75.69;102076.16;4924663;28;8941;-68
2023/08/16 05:16:28;;;;;;;;;6.00;4.33;;;;;16.65;75.49;102087.47;4962202;28;8934;-68
2023/08/16 05:18:57;;;;;;;;;6.00;6.00;;;;;16.66;75.79;102078.25;4955168;28;8943;-67
2023/08/16 05:21:25;;;;;;;;;5.00;5.00;;;;;16.68;75.82;102086.19;4932011;28;8996;-68
2023/08/16 05:23:51;;;;;;;;;6.33;5.33;;;;;16.67;75.76;102088.09;4939858;28;8928;-66
2023/08/16 05:26:18;;;;;;;;;7.33;5.67;;;;;16.67;75.83;102085.38;4953256;28;8938;-67
2023/08/16 05:28:44;;;;;;;;;5.33;5.33;;;;;16.67;76.24;102088.09;4954390;28;8926;-68
2023/08/16 05:31:12;;;;;;;;;7.00;6.00;;;;;16.68;76.44;102092.47;4953712;28;8993;-68
2023/08/16 05:33:39;;;;;;;;;7.33;6.67;;;;;16.69;76.23;102074.28;4954371;28;8916;-67
2023/08/16 05:36:06;;;;;;;;;6.75;6.75;;;;;16.70;76.46;102076.81;4950894;28;8995;-66
2023/08/16 05:38:33;;;;;;;;;7.33;7.00;;;;;16.72;76.51;102074.72;4944627;28;9581;-67
2023/08/16 05:41:03;;;;;;;;;7.00;6.00;;;;;16.73;76.88;102075.56;4949325;29;8948;-67
2023/08/16 05:43:30;;;;;;;;;8.50;7.75;;;;;16.77;76.46;102080.44;4934573;28;9588;-67
2023/08/16 05:45:57;;;;;;;;;6.33;5.00;;;;;16.79;76.75;102088.38;4951289;28;8871;-68
2023/08/16 05:48:23;;;;;;;;;5.67;5.67;;;;;16.82;76.89;102081.69;4952086;28;8923;-68
2023/08/16 05:50:50;;;;;;;;;7.00;5.75;;;;;16.84;76.84;102093.19;4953504;28;8967;-68
2023/08/16 05:53:16;;;;;;;;;7.75;6.50;;;;;16.89;77.17;102086.06;4953480;28;8860;-68
2023/08/16 05:55:42;;;;;;;;;6.50;6.00;;;;;16.94;77.16;102097.19;4953621;28;8838;-67
2023/08/16 05:58:09;;;;;;;;;2.75;2.75;;;;;17.00;77.15;102098.25;4952047;28;8868;-68
2023/08/16 06:00:35;;;;;;;;;3.25;3.00;;;;;17.04;77.24;102091.34;4953058;28;9521;-68
2023/08/16 06:03:03;;;;;;;;;4.00;4.00;;;;;17.11;77.26;102092.19;4952341;28;8853;-68
2023/08/16 06:05:29;;;;;;;;;8.00;6.00;;;;;17.17;77.27;102098.69;4959045;28;8877;-68
2023/08/16 06:07:57;;;;;;;;;6.00;6.00;;;;;17.24;77.29;102091.38;4954603;28;8921;-68
2023/08/16 06:10:23;;;;;;;;;5.00;4.00;;;;;17.32;77.22;102099.34;4960722;28;8828;-68
2023/08/16 06:12:50;;;;;;;;;5.50;3.00;;;;;17.40;77.07;102095.56;4954404;28;8834;-68
2023/08/16 06:15:16;;;;;;;;;3.00;2.75;;;;;17.46;76.91;102101.03;4954414;28;8826;-68
2023/08/16 06:17:43;;;;;;;;;4.33;4.33;;;;;17.48;77.06;102108.97;4953942;28;8900;-67
2023/08/16 06:20:10;;;;;;;;;2.00;2.00;;;;;17.50;76.80;102101.44;4937050;28;8841;-68
2023/08/16 06:22:39;;;;;;;;;1.00;1.00;;;;;17.53;77.09;102110.00;4955770;28;8844;-67
2023/08/16 06:25:07;;;;;;;;;2.00;2.00;;;;;17.58;76.89;102105.81;4954089;28;8850;-68
2023/08/16 06:27:34;;;;;;;;;2.00;2.00;;;;;17.63;76.97;102109.63;4957391;28;8817;-67
2023/08/16 06:30:01;;;;;;;;;2.00;2.00;;;;;17.64;77.22;102111.28;4954029;28;8829;-68
2023/08/16 06:32:27;;;;;;;;;5.00;3.00;;;;;17.67;76.89;102113.59;4942025;28;8834;-68
2023/08/16 06:34:54;;;;;;;;;3.25;3.25;;;;;17.70;76.79;102112.31;4953806;28;8830;-68
2023/08/16 06:37:21;;;;;;;;;2.25;2.25;;;;;17.71;76.96;102116.72;4959717;28;8830;-68
2023/08/16 06:39:48;;;;;;;;;2.50;2.50;;;;;17.75;77.27;102113.41;4952886;28;9893;-67
2023/08/16 06:42:14;;;;;;;;;1.50;1.25;;;;;17.79;76.74;102119.28;4957704;28;8844;-67
2023/08/16 06:44:41;;;;;;;;;1.00;1.00;;;;;17.83;76.84;102122.41;4953275;28;8898;-68
2023/08/16 06:47:07;;;;;;;;;2.00;2.00;;;;;17.86;77.02;102117.34;4954182;28;8853;-67
2023/08/16 06:49:34;;;;;;;;;1.25;1.25;;;;;17.91;77.04;102131.19;4936255;28;9565;-67
2023/08/16 06:52:00;;;;;;;;;2.25;2.00;;;;;17.93;76.88;102128.25;4935726;28;8864;-68
2023/08/16 06:54:27;;;;;;;;;2.00;2.00;;;;;17.93;77.24;102134.53;4952033;28;8838;-68
2023/08/16 06:56:57;;;;;;;;;3.00;3.00;;;;;17.89;77.26;102132.44;4935753;28;8836;-67
2023/08/16 06:59:27;;;;;;;;;2.00;2.00;;;;;17.87;77.26;102135.41;4952635;28;8906;-68
2023/08/16 07:01:53;;;;;;;;;2.00;2.00;;;;;17.86;78.01;102136.41;4951479;28;8853;-68
2023/08/16 07:04:20;;;;;;;;;3.00;3.00;;;;;17.85;78.08;102139.38;4951772;28;8846;-67
2023/08/16 07:06:46;;;;;;;;;3.50;3.00;;;;;17.87;78.21;102137.28;4953226;28;8924;-67
2023/08/16 07:09:13;;;;;;;;;3.75;2.00;;;;;17.87;78.30;102137.28;4953495;28;8916;-68
2023/08/16 07:11:39;;;;;;;;;2.25;2.25;;;;;17.91;78.39;102135.81;4934617;28;8856;-68
2023/08/16 07:14:06;;;;;;;;;1.00;1.00;;;;;17.95;78.40;102137.06;4953255;28;8834;-68
2023/08/16 07:16:33;;;;;;;;;2.50;2.50;;;;;18.02;78.40;102137.88;4953176;28;8952;-67
2023/08/16 07:19:00;;;;;;;;;2.75;2.00;;;;;18.09;78.28;102148.78;4952694;28;8855;-67
2023/08/16 07:21:26;;;;;;;;;2.50;1.50;;;;;18.10;78.21;102140.38;4952828;28;8857;-67
2023/08/16 07:23:53;;;;;;;;;2.00;2.00;;;;;18.12;78.23;102138.28;4953299;28;9529;-68
2023/08/16 07:26:19;;;;;;;;;3.25;3.25;;;;;18.14;78.35;102140.78;4953266;28;8886;-68
2023/08/16 07:28:46;;;;;;;;;4.00;3.50;;;;;18.19;78.18;102151.88;4953018;28;8813;-67
2023/08/16 07:31:12;;;;;;;;;2.25;2.00;;;;;18.20;77.85;102151.69;4952474;28;8834;-67
2023/08/16 07:33:40;;;;;;;;;2.50;2.50;;;;;18.23;77.96;102154.00;4953115;28;8976;-67
2023/08/16 07:36:06;;;;;;;;;2.25;2.25;;;;;18.23;77.91;102151.28;4951717;28;8849;-68
2023/08/16 07:38:33;;;;;;;;;4.75;3.00;;;;;18.25;77.76;102148.31;4953119;28;8861;-67
2023/08/16 07:41:00;;;;;;;;;2.00;2.00;;;;;18.27;77.60;102151.66;4952618;28;8846;-68
2023/08/16 07:43:29;;;;;;;;;3.50;2.00;;;;;18.28;77.76;102159.63;4952912;28;8830;-68
2023/08/16 07:45:56;;;;;;;;;2.00;2.00;;;;;18.32;78.11;102156.50;4952505;28;8849;-67
2023/08/16 07:48:22;;;;;;;;;2.00;2.00;;;;;18.38;77.73;102167.34;4953036;28;8856;-68
2023/08/16 07:50:49;;;;;;;;;2.00;2.00;;;;;18.39;77.62;102165.47;4951248;28;8837;-68
2023/08/16 07:53:16;;;;;;;;;4.00;4.00;;;;;18.37;77.22;102168.41;4952677;28;8853;-68
2023/08/16 07:55:43;;;;;;;;;3.25;3.25;;;;;18.35;76.67;102165.09;4951281;28;8889;-67
2023/08/16 07:58:09;;;;;;;;;3.00;3.00;;;;;18.31;76.74;102165.69;4952595;28;8838;-67
2023/08/16 08:00:36;;;;;;;;;3.00;2.00;;;;;18.31;76.56;102163.84;4952353;28;8825;-67
2023/08/16 08:03:03;;;;;;;;;4.25;4.00;;;;;18.33;76.88;102169.06;4952640;28;9010;-68
2023/08/16 08:05:30;;;;;;;;;3.00;3.00;;;;;18.34;76.79;102168.84;4952652;28;9703;-67
2023/08/16 08:07:57;;;;;;;;;3.00;3.00;;;;;18.34;76.84;102174.28;4952304;28;8904;-67
2023/08/16 08:10:23;;;;;;;;;3.50;3.00;;;;;18.40;76.83;102176.19;4952428;28;8838;-68
2023/08/16 08:12:50;;;;;;;;;2.25;1.75;;;;;18.43;76.65;102177.63;4952143;28;8931;-67
2023/08/16 08:15:16;;;;;;;;;3.50;3.50;;;;;18.48;76.59;102180.56;4952568;28;8829;-67
2023/08/16 08:17:46;;;;;;;;;3.00;2.00;;;;;18.53;76.04;102172.56;4951119;28;8833;-67
2023/08/16 08:20:14;;;;;;;;;1.25;1.25;;;;;18.62;75.82;102175.91;4952040;28;8909;-67
2023/08/16 08:22:41;;;;;;;;;4.00;4.00;;;;;18.68;75.31;102180.50;4952129;28;8833;-67
2023/08/16 08:25:08;;;;;;;;;3.00;3.00;;;;;18.70;75.05;102173.78;4935239;28;8842;-68
2023/08/16 08:27:34;;;;;;;;;2.75;2.75;;;;;18.72;74.06;102187.22;4952122;28;8836;-68
2023/08/16 08:30:02;;;;;;;;;3.75;2.00;;;;;18.76;72.67;102188.47;4951872;28;8813;-68
2023/08/16 08:32:29;;;;;;;;;3.00;2.75;;;;;18.80;71.83;102180.66;4952157;28;8919;-68
2023/08/16 08:34:55;;;;;;;;;2.75;2.75;;;;;18.89;72.21;102188.41;4934774;28;8826;-68
2023/08/16 08:37:23;;;;;;;;;2.25;2.25;;;;;18.99;72.14;102185.22;4919214;28;8822;-68
2023/08/16 08:39:49;;;;;;;;;1.75;1.75;;;;;18.95;72.00;102176.63;4951669;28;8854;-68
2023/08/16 08:42:16;;;;;;;;;3.00;2.00;;;;;19.07;71.94;102195.03;4952094;28;8822;-68
2023/08/16 08:44:43;;;;;;;;;3.25;3.00;;;;;19.11;71.62;102188.94;4951572;29;8846;-68
2023/08/16 08:47:10;;;;;;;;;3.50;3.50;;;;;19.17;71.58;102185.34;4952052;29;8857;-68
2023/08/16 08:49:43;;;;;;;;;2.00;2.00;;;;;19.19;71.33;102185.94;4951958;29;8825;-67
2023/08/16 08:52:10;;;;;;;;;2.75;2.75;;;;;19.21;71.19;102185.75;4952283;29;8872;-67
2023/08/16 08:54:36;;;;;;;;;3.25;3.25;;;;;19.24;70.92;102186.16;4934383;29;8869;-68
2023/08/16 08:57:05;;;;;;;;;2.50;2.50;;;;;19.31;70.94;102191.53;4951985;28;8849;-67
2023/08/16 08:59:33;;;;;;;;;2.25;2.25;;;;;19.32;70.69;102187.75;4951731;29;8838;-67
2023/08/16 09:02:04;;;;;;;;;3.00;3.00;;;;;19.36;71.04;102188.16;4951640;29;8934;-68
2023/08/16 09:04:33;;;;;;;;;5.25;4.00;;;;;19.37;70.70;102193.41;4950874;29;8944;-68
2023/08/16 09:07:04;;;;;;;;;5.00;4.00;;;;;19.41;70.46;102196.53;4951844;29;8841;-68
2023/08/16 09:09:31;;;;;;;;;3.75;3.75;;;;;19.47;70.59;102193.75;4952009;29;9605;-67
2023/08/16 09:11:58;;;;;;;;;6.00;3.50;;;;;19.51;70.72;102197.72;4934354;29;8846;-67
2023/08/16 09:14:24;;;;;;;;;2.75;2.75;;;;;19.57;69.74;102196.00;4951889;29;8830;-68
2023/08/16 09:16:51;;;;;;;;;3.00;3.00;;;;;19.62;69.60;102198.94;4934679;29;8838;-67
2023/08/16 09:19:17;;;;;;;;;3.25;3.25;;;;;19.63;69.90;102195.13;4951653;29;8834;-68
2023/08/16 09:21:44;;;;;;;;;3.75;3.75;;;;;19.67;69.76;102201.00;4951148;29;8833;-67
2023/08/16 09:24:11;;;;;;;;;2.00;2.00;;;;;19.71;69.57;102202.22;4934406;29;8845;-68
2023/08/16 09:26:38;;;;;;;;;2.50;2.50;;;;;19.73;69.25;102202.84;4951074;28;8853;-67
2023/08/16 09:29:04;;;;;;;;;4.00;4.00;;;;;19.75;69.23;102193.38;4934723;29;9545;-67
2023/08/16 09:31:38;;;;;;;;;3.00;3.00;;;;;19.81;69.07;102193.53;4950001;29;8849;-68
2023/08/16 09:34:09;;;;;;;;;4.25;4.25;;;;;19.81;69.38;102199.00;4934787;28;8865;-67
2023/08/16 09:36:36;;;;;;;;;3.25;2.25;;;;;19.85;69.78;102202.94;4955778;28;8834;-67
2023/08/16 09:39:09;;;;;;;;;3.00;2.00;;;;;19.87;69.35;102198.94;4954960;28;8863;-67
2023/08/16 09:41:44;;;;;;;;;3.25;3.25;;;;;19.86;68.88;102196.44;4954604;28;8846;-67
2023/08/16 09:44:11;;;;;;;;;3.50;3.50;;;;;19.89;68.94;102198.72;4937956;28;9636;-68
2023/08/16 09:46:38;;;;;;;;;6.25;5.00;;;;;19.93;68.95;102189.00;4954743;28;8846;-68
2023/08/16 09:49:25;;;;;;;;;2.00;2.00;;;;;19.93;68.52;102184.41;4955441;28;8861;-67
2023/08/16 09:51:52;;;;;;;;;4.25;4.25;;;;;19.98;68.59;102191.91;4954448;28;8876;-68
2023/08/16 09:54:23;;;;;;;;;2.25;2.25;;;;;19.97;68.25;102190.22;4955112;28;8838;-67
2023/08/16 09:56:50;;;;;;;;;6.50;6.50;;;;;19.99;68.25;102191.69;4954488;28;8911;-68
2023/08/16 09:59:20;;;;;;;;;5.25;5.25;;;;;20.08;68.27;102189.50;4953821;28;8825;-68
2023/08/16 10:01:49;;;;;;;;;5.50;4.00;;;;;20.11;68.27;102185.50;4954521;28;9525;-68
2023/08/16 10:04:20;;;;;;;;;6.00;6.00;;;;;20.11;68.41;102189.06;4954857;28;8837;-68
2023/08/16 10:07:08;;;;;;;;;8.25;8.25;;;;;20.12;68.38;102176.22;4937403;28;8854;-68
2023/08/16 10:09:40;;;;;;;;;3.75;3.75;;;;;20.12;68.16;102181.69;4938051;28;8817;-68
2023/08/16 10:12:08;;;;;;;;;7.00;6.50;;;;;20.10;67.08;102190.13;4954360;28;8880;-67
2023/08/16 10:14:37;;;;;;;;;4.00;4.00;;;;;20.14;67.63;102188.63;4954376;28;8842;-67
2023/08/16 10:17:08;;;;;;;;;6.00;6.00;;;;;20.23;67.46;102183.69;4933929;29;8843;-68
2023/08/16 10:19:39;;;;;;;;;5.25;4.00;;;;;20.24;67.34;102186.19;4944164;28;8914;-67
2023/08/16 10:22:27;;;;;;;;;3.50;3.50;;;;;20.28;66.76;102193.94;4954510;28;8865;-67
2023/08/16 10:25:13;;;;;;;;;6.00;3.00;;;;;20.31;66.90;102193.50;4954284;28;9707;-67
2023/08/16 10:27:45;;;;;;;;;3.25;3.25;;;;;20.37;66.76;102189.84;4933785;29;8832;-67
2023/08/16 10:30:20;;;;;;;;;4.00;4.00;;;;;20.42;66.74;102193.59;4934763;29;8836;-68
2023/08/16 10:32:49;;;;;;;;;4.00;4.00;;;;;20.39;65.93;102201.41;4945032;28;8826;-68
2023/08/16 10:35:17;;;;;;;;;3.25;3.25;;;;;20.36;65.16;102201.84;4936806;28;8837;-68
2023/08/16 10:37:46;;;;;;;;;5.00;5.00;;;;;20.40;64.52;102190.22;4936509;28;8956;-68
2023/08/16 10:40:17;;;;;;;;;4.00;4.00;;;;;20.46;64.78;102181.13;4936507;28;8834;-68
2023/08/16 10:42:59;;;;;;;;;5.00;5.00;;;;;20.54;64.72;102185.50;4954122;28;8848;-67
2023/08/16 10:45:28;;;;;;;;;2.75;2.75;;;;;20.53;65.13;102181.06;4953685;28;8848;-67
2023/08/16 10:48:18;;;;;;;;;5.00;5.00;;;;;20.59;65.09;102182.06;4936477;28;8842;-68
2023/08/16 10:50:58;;;;;;;;;3.75;3.75;;;;;20.62;65.20;102184.34;4953521;28;8837;-68
2023/08/16 10:53:28;;;;;;;;;4.25;3.00;;;;;20.67;64.89;102179.88;4953501;28;8826;-68
2023/08/16 10:55:55;;;;;;;;;3.50;3.50;;;;;20.77;65.05;102183.94;4953692;28;8923;-68
2023/08/16 10:58:23;;;;;;;;;5.00;3.25;;;;;20.80;65.27;102183.50;4953136;28;8842;-68
2023/08/16 11:01:04;;;;;;;;;5.00;5.00;;;;;20.76;65.25;102190.50;4936353;28;8818;-68
2023/08/16 11:03:32;;;;;;;;;7.25;7.25;;;;;20.74;65.71;102185.22;4953577;28;8838;-67
2023/08/16 11:06:00;;;;;;;;;6.75;6.00;;;;;20.74;64.97;102186.09;4953324;28;8861;-68
2023/08/16 11:08:32;;;;;;;;;3.25;3.25;;;;;20.81;65.06;102190.63;4953182;28;8848;-68
2023/08/16 11:11:02;;;;;;;;;3.00;3.00;;;;;20.83;64.83;102192.09;4953406;28;8916;-68
2023/08/16 11:13:29;;;;;;;;;6.50;5.00;;;;;20.85;64.21;102191.84;4953126;28;8825;-67
2023/08/16 11:15:56;;;;;;;;;3.50;3.00;;;;;20.86;65.04;102190.78;4953220;28;8960;-68
2023/08/16 11:18:28;;;;;;;;;3.75;3.75;;;;;20.92;65.19;102192.59;4953032;28;9580;-67
2023/08/16 11:21:00;;;;;;;;;5.50;5.25;;;;;20.91;64.70;102186.31;4952999;28;8842;-68
2023/08/16 11:23:31;;;;;;;;;5.75;5.50;;;;;20.96;65.01;102189.19;4953107;28;8853;-67
2023/08/16 11:26:00;;;;;;;;;4.00;4.00;;;;;21.03;64.90;102186.34;4953180;28;9028;-68
2023/08/16 11:28:31;;;;;;;;;5.50;5.25;;;;;21.09;64.52;102192.81;4953084;28;9607;-67
2023/08/16 11:30:59;;;;;;;;;5.00;4.50;;;;;21.15;64.07;102184.50;4952975;28;8854;-69
2023/08/16 11:33:36;;;;;;;;;5.00;5.00;;;;;21.18;63.70;102175.81;4935162;28;8831;-68
2023/08/16 11:36:05;;;;;;;;;6.50;6.50;;;;;21.14;63.27;102188.28;4952801;28;8945;-68
2023/08/16 11:38:34;;;;;;;;;3.50;3.50;;;;;21.16;62.22;102185.34;4952770;28;9573;-68